Etusivu
METAR-TAF:

METAR-TAF

Lentoasemat :

Lampedusan lentoasema

Lampedusa, Italia

Leveyspiiri: 35-30N, Pituuspiiri: 012-36E, korkeus merenpinnasta: 16 m

Tämänhetkinen sää

Tämä raportti tehtiin 34 minuuttia sitten, kello 12.50 UTC
Tuuli 8 kn idästä/kaakosta
Lämpötila 20°C
Kosteus 83%
Ilmanpaine 1006 hPa
Näkyvyys 10 km tai enemmän

METAR: LICD 161250Z AUTO 11008KT 9999 OVC021/// 20/17 Q1006

Aika: 15:24 (13:24 UTC)

Sääennuste

Tämä raportti tehtiin 2 tuntia ja 24 minuuttia sitten, kello 11.00 UTC
Ennuste voimassa 16. päivästä klo 12 UTC - 17. päivään klo 12 UTC
Tuuli 10 kn kaakosta
Näkyvyys 10 km tai enemmän
Hajanaisia pilviä 2000 ft:n korkeudessa
Tulossa
16. päivästä klo 17 UTC - 16. päivään klo 19 UTC
Tuuli 15 kn lännestä/luoteesta

TAF: LICD 161100Z 1612/1712 14010KT 9999 SCT020 BECMG 1617/1619 30015KT

Säähavainnot ja -ennusteet yli 4000 lentoasemalta (METAR- ja TAF-raportit).

Käytössä olevat sääasemat on merkitty karttaan keltaisilla ja punaisilla pisteillä.

Aseta hiiri pisteen päälle nähdäksesi sääaseman nimen.

Klikkaa sitten nähdäksesi säähavainnot ja -ennusteet.

Kartan vaihtaminen: klikkaa mustalla rastilla varustettuja vihreitä pisteitä, niin voit zoomata sisään; viivalla varustettua vihreää pistettä, niin voit zoomata ulos tai vihreitä nuolia, niin pääset viereisille kartoille.


METAR-TAF: